LOT59K EDDF-EPPO
Flight info
| Callsign | LOT59K |
|---|---|
| Flight time | 1h 0m |
| Altitude | 31000 |
| Route | TOBA1D TOBAK SUBIX KELOD KELO1M |
| Aircraft | B738/M-SDE2E3FGHIRWXY/S |
Departure
| Time | 2026-05-09 11:08 |
|---|---|
| Airport | Frankfurt Main Airport (EDDF) |
Arrival
| Time | 2026-05-09 12:09 |
|---|---|
| Airport | Poznań-Ławica Airport (EPPO) |
| Time | Latitude | Longitude | Altitude | Speed | Heading |
|---|---|---|---|---|---|
| 2026-05-09 10:30 | 50.04635 | 8.56667 | 362 ft | 0 kts | 115° |
| 2026-05-09 10:55 | 50.04637 | 8.56663 | 369 ft | 2 kts | 115° |
| 2026-05-09 10:55 | 50.04644 | 8.56640 | 369 ft | 2 kts | 119° |
| 2026-05-09 10:55 | 50.04652 | 8.56617 | 369 ft | 2 kts | 121° |
| 2026-05-09 10:56 | 50.04661 | 8.56596 | 365 ft | 2 kts | 126° |
| 2026-05-09 10:56 | 50.04671 | 8.56576 | 367 ft | 2 kts | 135° |
| 2026-05-09 10:56 | 50.04684 | 8.56560 | 372 ft | 2 kts | 153° |
| 2026-05-09 10:56 | 50.04700 | 8.56554 | 366 ft | 2 kts | 196° |
| 2026-05-09 10:57 | 50.04714 | 8.56568 | 365 ft | 2 kts | 233° |
| 2026-05-09 10:57 | 50.04724 | 8.56589 | 367 ft | 2 kts | 236° |
| 2026-05-09 10:57 | 50.04733 | 8.56610 | 369 ft | 2 kts | 236° |
| 2026-05-09 10:57 | 50.04738 | 8.56622 | 366 ft | 1 kts | 234° |
| 2026-05-09 10:58 | 50.04739 | 8.56623 | 366 ft | 0 kts | 234° |
| 2026-05-09 10:59 | 50.04736 | 8.56616 | 366 ft | 4 kts | 234° |
| 2026-05-09 10:59 | 50.04702 | 8.56547 | 368 ft | 8 kts | 232° |
| 2026-05-09 11:00 | 50.04676 | 8.56472 | 367 ft | 8 kts | 247° |
| 2026-05-09 11:00 | 50.04673 | 8.56463 | 367 ft | 1 kts | 248° |
| 2026-05-09 11:00 | 50.04670 | 8.56450 | 368 ft | 5 kts | 248° |
| 2026-05-09 11:00 | 50.04644 | 8.56340 | 367 ft | 13 kts | 250° |
| 2026-05-09 11:01 | 50.04611 | 8.56207 | 372 ft | 13 kts | 249° |
| 2026-05-09 11:01 | 50.04581 | 8.56078 | 371 ft | 13 kts | 249° |
| 2026-05-09 11:01 | 50.04537 | 8.55967 | 368 ft | 12 kts | 202° |
| 2026-05-09 11:01 | 50.04456 | 8.55924 | 366 ft | 12 kts | 196° |
| 2026-05-09 11:02 | 50.04375 | 8.55916 | 366 ft | 12 kts | 169° |
| 2026-05-09 11:02 | 50.04298 | 8.55954 | 370 ft | 12 kts | 161° |
| 2026-05-09 11:02 | 50.04210 | 8.55919 | 366 ft | 15 kts | 191° |
| 2026-05-09 11:02 | 50.04116 | 8.55960 | 367 ft | 13 kts | 161° |
| 2026-05-09 11:03 | 50.04042 | 8.55918 | 365 ft | 13 kts | 245° |
| 2026-05-09 11:03 | 50.04007 | 8.55776 | 368 ft | 16 kts | 249° |
| 2026-05-09 11:03 | 50.03967 | 8.55612 | 369 ft | 15 kts | 250° |
| 2026-05-09 11:03 | 50.03930 | 8.55458 | 368 ft | 16 kts | 249° |
| 2026-05-09 11:04 | 50.03895 | 8.55306 | 366 ft | 13 kts | 250° |
| 2026-05-09 11:04 | 50.03864 | 8.55177 | 369 ft | 13 kts | 249° |
| 2026-05-09 11:04 | 50.03833 | 8.55051 | 371 ft | 12 kts | 250° |
| 2026-05-09 11:04 | 50.03804 | 8.54928 | 370 ft | 12 kts | 250° |
| 2026-05-09 11:05 | 50.03774 | 8.54802 | 368 ft | 15 kts | 250° |
| 2026-05-09 11:05 | 50.03728 | 8.54607 | 367 ft | 22 kts | 249° |
| 2026-05-09 11:05 | 50.03701 | 8.54494 | 367 ft | 0 kts | 250° |
| 2026-05-09 11:05 | 50.03700 | 8.54493 | 367 ft | 1 kts | 250° |
| 2026-05-09 11:06 | 50.03686 | 8.54432 | 370 ft | 12 kts | 249° |
| 2026-05-09 11:06 | 50.03617 | 8.54312 | 364 ft | 18 kts | 182° |
| 2026-05-09 11:06 | 50.03572 | 8.54332 | 368 ft | 0 kts | 160° |
| 2026-05-09 11:07 | 50.03564 | 8.54336 | 367 ft | 6 kts | 160° |
| 2026-05-09 11:07 | 50.03511 | 8.54459 | 364 ft | 22 kts | 90° |
| 2026-05-09 11:07 | 50.03575 | 8.54767 | 360 ft | 57 kts | 69° |
| 2026-05-09 11:08 | 50.03805 | 8.55738 | 364 ft | 129 kts | 70° |
| 2026-05-09 11:08 | 50.04188 | 8.57292 | 559 ft | 170 kts | 67° |
| 2026-05-09 11:08 | 50.04668 | 8.59050 | 1182 ft | 194 kts | 69° |
| 2026-05-09 11:08 | 50.05137 | 8.61174 | 1676 ft | 215 kts | 71° |
| 2026-05-09 11:09 | 50.05623 | 8.63447 | 2422 ft | 221 kts | 71° |
| 2026-05-09 11:09 | 50.06108 | 8.65689 | 3094 ft | 224 kts | 71° |
| 2026-05-09 11:09 | 50.06619 | 8.68019 | 3725 ft | 230 kts | 71° |
| 2026-05-09 11:09 | 50.07181 | 8.70343 | 4499 ft | 231 kts | 59° |
| 2026-05-09 11:10 | 50.08372 | 8.72000 | 5141 ft | 235 kts | 22° |
| 2026-05-09 11:10 | 50.09896 | 8.72916 | 5865 ft | 236 kts | 22° |
| 2026-05-09 11:10 | 50.11427 | 8.73917 | 6553 ft | 241 kts | 22° |
| 2026-05-09 11:10 | 50.12980 | 8.74951 | 7202 ft | 244 kts | 22° |
| 2026-05-09 11:11 | 50.14558 | 8.76007 | 7858 ft | 249 kts | 22° |
| 2026-05-09 11:11 | 50.16157 | 8.77082 | 8529 ft | 252 kts | 22° |
| 2026-05-09 11:11 | 50.17775 | 8.78173 | 9207 ft | 255 kts | 22° |
| 2026-05-09 11:11 | 50.19419 | 8.79285 | 9876 ft | 259 kts | 22° |
| 2026-05-09 11:12 | 50.21094 | 8.80418 | 10342 ft | 270 kts | 22° |
| 2026-05-09 11:12 | 50.22890 | 8.81636 | 10535 ft | 293 kts | 22° |
| 2026-05-09 11:12 | 50.24834 | 8.82956 | 10715 ft | 316 kts | 22° |
| 2026-05-09 11:12 | 50.26929 | 8.84318 | 10881 ft | 337 kts | 16° |
| 2026-05-09 11:13 | 50.29308 | 8.84658 | 11039 ft | 354 kts | 351° |
| 2026-05-09 11:13 | 50.31807 | 8.84039 | 11189 ft | 374 kts | 350° |
| 2026-05-09 11:13 | 50.34432 | 8.83437 | 11452 ft | 388 kts | 351° |
| 2026-05-09 11:13 | 50.37129 | 8.82850 | 11997 ft | 393 kts | 351° |
| 2026-05-09 11:14 | 50.39848 | 8.82269 | 12660 ft | 395 kts | 351° |
| 2026-05-09 11:14 | 50.42582 | 8.81689 | 13101 ft | 396 kts | 351° |
| 2026-05-09 11:14 | 50.45284 | 8.81115 | 13112 ft | 398 kts | 351° |
| 2026-05-09 11:14 | 50.48028 | 8.80532 | 13132 ft | 399 kts | 351° |
| 2026-05-09 11:15 | 50.50785 | 8.79943 | 13137 ft | 399 kts | 351° |
| 2026-05-09 11:15 | 50.53552 | 8.79611 | 13113 ft | 401 kts | 4° |
| 2026-05-09 11:15 | 50.56226 | 8.80795 | 13148 ft | 402 kts | 26° |
| 2026-05-09 11:15 | 50.58498 | 8.83353 | 13135 ft | 404 kts | 44° |
| 2026-05-09 11:16 | 50.60190 | 8.86865 | 13135 ft | 404 kts | 61° |
| 2026-05-09 11:16 | 50.61502 | 8.90779 | 13126 ft | 404 kts | 62° |
| 2026-05-09 11:16 | 50.62828 | 8.94691 | 13125 ft | 405 kts | 62° |
| 2026-05-09 11:16 | 50.64160 | 8.98599 | 13115 ft | 405 kts | 62° |
| 2026-05-09 11:17 | 50.65500 | 9.02505 | 13124 ft | 405 kts | 61° |
| 2026-05-09 11:17 | 50.66841 | 9.06395 | 13120 ft | 404 kts | 61° |
| 2026-05-09 11:17 | 50.68185 | 9.10291 | 13128 ft | 404 kts | 61° |
| 2026-05-09 11:17 | 50.69531 | 9.14188 | 13138 ft | 407 kts | 61° |
| 2026-05-09 11:18 | 50.70888 | 9.18125 | 13714 ft | 410 kts | 61° |
| 2026-05-09 11:18 | 50.72244 | 9.22087 | 14331 ft | 411 kts | 62° |
| 2026-05-09 11:18 | 50.73545 | 9.26118 | 14914 ft | 414 kts | 63° |
| 2026-05-09 11:18 | 50.74821 | 9.30210 | 15461 ft | 417 kts | 64° |
| 2026-05-09 11:19 | 50.76095 | 9.34334 | 15983 ft | 420 kts | 64° |
| 2026-05-09 11:19 | 50.77384 | 9.38501 | 16496 ft | 424 kts | 63° |
| 2026-05-09 11:19 | 50.78688 | 9.42697 | 17010 ft | 427 kts | 63° |
| 2026-05-09 11:19 | 50.80004 | 9.46920 | 17533 ft | 430 kts | 63° |
| 2026-05-09 11:20 | 50.81332 | 9.51178 | 18044 ft | 433 kts | 63° |
| 2026-05-09 11:20 | 50.82667 | 9.55461 | 18533 ft | 436 kts | 63° |
| 2026-05-09 11:20 | 50.84012 | 9.59783 | 18958 ft | 439 kts | 63° |
| 2026-05-09 11:20 | 50.85364 | 9.64136 | 19407 ft | 441 kts | 63° |
| 2026-05-09 11:21 | 50.86721 | 9.68512 | 19855 ft | 444 kts | 63° |
| 2026-05-09 11:21 | 50.88081 | 9.72910 | 20269 ft | 447 kts | 63° |
| 2026-05-09 11:21 | 50.89446 | 9.77347 | 20688 ft | 449 kts | 63° |
| 2026-05-09 11:21 | 50.90810 | 9.81791 | 21109 ft | 451 kts | 63° |
| 2026-05-09 11:22 | 50.92169 | 9.86225 | 21505 ft | 454 kts | 63° |
| 2026-05-09 11:22 | 50.93552 | 9.90739 | 21894 ft | 456 kts | 63° |
| 2026-05-09 11:22 | 50.94940 | 9.95281 | 22283 ft | 459 kts | 63° |
| 2026-05-09 11:22 | 50.96329 | 9.99834 | 22664 ft | 461 kts | 63° |
| 2026-05-09 11:23 | 50.97731 | 10.04442 | 23034 ft | 464 kts | 63° |
| 2026-05-09 11:23 | 50.99135 | 10.09062 | 23390 ft | 466 kts | 63° |
| 2026-05-09 11:23 | 51.00543 | 10.13707 | 23751 ft | 468 kts | 63° |
| 2026-05-09 11:23 | 51.01955 | 10.18372 | 24053 ft | 470 kts | 63° |
| 2026-05-09 11:24 | 51.03372 | 10.23060 | 24352 ft | 472 kts | 63° |
| 2026-05-09 11:24 | 51.04793 | 10.27772 | 24645 ft | 474 kts | 63° |
| 2026-05-09 11:24 | 51.06323 | 10.32424 | 24912 ft | 475 kts | 56° |
| 2026-05-09 11:24 | 51.08349 | 10.36563 | 25189 ft | 475 kts | 44° |
| 2026-05-09 11:25 | 51.10887 | 10.39896 | 25485 ft | 473 kts | 32° |
| 2026-05-09 11:25 | 51.13679 | 10.42681 | 25772 ft | 474 kts | 30° |
| 2026-05-09 11:25 | 51.16488 | 10.45456 | 26010 ft | 477 kts | 31° |
| 2026-05-09 11:25 | 51.19302 | 10.48292 | 26252 ft | 479 kts | 31° |
| 2026-05-09 11:26 | 51.22098 | 10.51173 | 26547 ft | 479 kts | 32° |
| 2026-05-09 11:26 | 51.24884 | 10.54086 | 26931 ft | 477 kts | 32° |
| 2026-05-09 11:26 | 51.27653 | 10.57005 | 27340 ft | 475 kts | 32° |
| 2026-05-09 11:26 | 51.30407 | 10.59917 | 27739 ft | 474 kts | 32° |
| 2026-05-09 11:27 | 51.33159 | 10.62824 | 28077 ft | 474 kts | 32° |
| 2026-05-09 11:27 | 51.35874 | 10.65694 | 28412 ft | 473 kts | 32° |
| 2026-05-09 11:27 | 51.38609 | 10.68614 | 28785 ft | 472 kts | 33° |
| 2026-05-09 11:27 | 51.41265 | 10.71719 | 29183 ft | 471 kts | 36° |
| 2026-05-09 11:28 | 51.43860 | 10.74923 | 29581 ft | 470 kts | 36° |
| 2026-05-09 11:28 | 51.46443 | 10.78134 | 29944 ft | 470 kts | 36° |
| 2026-05-09 11:28 | 51.49035 | 10.81312 | 30298 ft | 468 kts | 35° |
| 2026-05-09 11:28 | 51.51624 | 10.84472 | 30627 ft | 467 kts | 37° |
| 2026-05-09 11:29 | 51.54028 | 10.87983 | 30903 ft | 469 kts | 46° |
| 2026-05-09 11:29 | 51.56106 | 10.92039 | 31178 ft | 470 kts | 50° |
| 2026-05-09 11:29 | 51.58139 | 10.96168 | 31161 ft | 473 kts | 50° |
| 2026-05-09 11:30 | 51.62241 | 11.04455 | 31184 ft | 471 kts | 49° |
| 2026-05-09 11:30 | 51.66335 | 11.12632 | 31204 ft | 467 kts | 49° |
| 2026-05-09 11:31 | 51.70412 | 11.20748 | 31212 ft | 465 kts | 49° |
| 2026-05-09 11:31 | 51.74445 | 11.28797 | 31212 ft | 464 kts | 49° |
| 2026-05-09 11:32 | 51.78491 | 11.36904 | 31193 ft | 463 kts | 49° |
| 2026-05-09 11:32 | 51.82529 | 11.45023 | 31191 ft | 463 kts | 49° |
| 2026-05-09 11:33 | 51.86561 | 11.53154 | 31192 ft | 463 kts | 49° |
| 2026-05-09 11:33 | 51.92604 | 11.65393 | 31194 ft | 464 kts | 49° |
| 2026-05-09 11:34 | 51.96635 | 11.73585 | 31199 ft | 465 kts | 49° |
| 2026-05-09 11:34 | 51.99936 | 11.82628 | 31206 ft | 470 kts | 66° |
| 2026-05-09 11:35 | 52.01613 | 11.92933 | 31208 ft | 473 kts | 75° |
| 2026-05-09 11:35 | 52.03089 | 12.03365 | 31203 ft | 473 kts | 74° |
| 2026-05-09 11:36 | 52.04619 | 12.13773 | 31202 ft | 473 kts | 74° |
| 2026-05-09 11:36 | 52.06158 | 12.24165 | 31202 ft | 473 kts | 74° |
| 2026-05-09 11:37 | 52.07670 | 12.34481 | 31203 ft | 472 kts | 74° |
| 2026-05-09 11:37 | 52.09176 | 12.44860 | 31202 ft | 472 kts | 74° |
| 2026-05-09 11:38 | 52.10683 | 12.55310 | 31203 ft | 471 kts | 74° |
| 2026-05-09 11:38 | 52.12161 | 12.65615 | 31206 ft | 471 kts | 74° |
| 2026-05-09 11:39 | 52.13636 | 12.75982 | 31204 ft | 470 kts | 74° |
| 2026-05-09 11:40 | 52.15829 | 12.91527 | 31206 ft | 469 kts | 74° |
| 2026-05-09 11:40 | 52.17280 | 13.01901 | 31208 ft | 469 kts | 74° |
| 2026-05-09 11:41 | 52.18715 | 13.12261 | 31211 ft | 469 kts | 75° |
| 2026-05-09 11:41 | 52.20142 | 13.22627 | 31213 ft | 469 kts | 75° |
| 2026-05-09 11:42 | 52.21560 | 13.32993 | 31216 ft | 468 kts | 75° |
| 2026-05-09 11:42 | 52.22968 | 13.43356 | 31217 ft | 468 kts | 75° |
| 2026-05-09 11:43 | 52.24366 | 13.53723 | 31220 ft | 468 kts | 75° |
| 2026-05-09 11:43 | 52.25754 | 13.64089 | 31215 ft | 467 kts | 74° |
| 2026-05-09 11:44 | 52.27125 | 13.74388 | 31215 ft | 467 kts | 75° |
| 2026-05-09 11:44 | 52.28500 | 13.84756 | 31219 ft | 467 kts | 74° |
| 2026-05-09 11:45 | 52.29866 | 13.95118 | 31216 ft | 467 kts | 74° |
| 2026-05-09 11:45 | 52.31226 | 14.05493 | 31206 ft | 467 kts | 74° |
| 2026-05-09 11:46 | 52.32570 | 14.15870 | 31222 ft | 467 kts | 75° |
| 2026-05-09 11:46 | 52.33882 | 14.26150 | 30691 ft | 456 kts | 74° |
| 2026-05-09 11:46 | 52.34310 | 14.29510 | 30203 ft | 457 kts | 74° |
| 2026-05-09 11:47 | 52.34962 | 14.34628 | 29194 ft | 461 kts | 75° |
| 2026-05-09 11:47 | 52.35619 | 14.39798 | 28073 ft | 468 kts | 75° |
| 2026-05-09 11:47 | 52.36283 | 14.45044 | 26971 ft | 474 kts | 75° |
| 2026-05-09 11:47 | 52.36951 | 14.50360 | 25899 ft | 479 kts | 76° |
| 2026-05-09 11:48 | 52.37530 | 14.55710 | 25519 ft | 478 kts | 82° |
| 2026-05-09 11:48 | 52.37650 | 14.61190 | 25415 ft | 485 kts | 90° |
| 2026-05-09 11:48 | 52.37251 | 14.66686 | 25271 ft | 487 kts | 99° |
| 2026-05-09 11:48 | 52.36601 | 14.72095 | 25216 ft | 483 kts | 99° |
| 2026-05-09 11:49 | 52.35968 | 14.77478 | 25217 ft | 482 kts | 99° |
| 2026-05-09 11:49 | 52.35353 | 14.82869 | 25214 ft | 483 kts | 99° |
| 2026-05-09 11:49 | 52.34751 | 14.88282 | 25210 ft | 484 kts | 98° |
| 2026-05-09 11:49 | 52.34155 | 14.93703 | 25208 ft | 484 kts | 98° |
| 2026-05-09 11:50 | 52.33562 | 14.99119 | 25215 ft | 484 kts | 98° |
| 2026-05-09 11:50 | 52.32966 | 15.04545 | 25199 ft | 484 kts | 98° |
| 2026-05-09 11:50 | 52.32369 | 15.09952 | 25193 ft | 481 kts | 98° |
| 2026-05-09 11:50 | 52.31778 | 15.15265 | 24762 ft | 471 kts | 98° |
| 2026-05-09 11:51 | 52.31190 | 15.20523 | 24061 ft | 470 kts | 99° |
| 2026-05-09 11:51 | 52.30601 | 15.25778 | 23185 ft | 471 kts | 99° |
| 2026-05-09 11:51 | 52.30010 | 15.31023 | 22421 ft | 468 kts | 99° |
| 2026-05-09 11:51 | 52.29422 | 15.36219 | 21800 ft | 462 kts | 99° |
| 2026-05-09 11:52 | 52.28838 | 15.41352 | 21188 ft | 457 kts | 99° |
| 2026-05-09 11:52 | 52.28260 | 15.46427 | 20554 ft | 453 kts | 99° |
| 2026-05-09 11:52 | 52.27684 | 15.51466 | 19927 ft | 449 kts | 99° |
| 2026-05-09 11:52 | 52.27117 | 15.56394 | 19316 ft | 446 kts | 99° |
| 2026-05-09 11:53 | 52.26545 | 15.61343 | 18717 ft | 442 kts | 100° |
| 2026-05-09 11:53 | 52.25974 | 15.66250 | 18076 ft | 438 kts | 100° |
| 2026-05-09 11:53 | 52.25408 | 15.71109 | 17461 ft | 434 kts | 100° |
| 2026-05-09 11:53 | 52.24847 | 15.75917 | 16859 ft | 429 kts | 100° |
| 2026-05-09 11:54 | 52.24291 | 15.80671 | 16248 ft | 425 kts | 100° |
| 2026-05-09 11:54 | 52.23737 | 15.85380 | 15676 ft | 421 kts | 100° |
| 2026-05-09 11:54 | 52.23350 | 15.90080 | 15066 ft | 417 kts | 89° |
| 2026-05-09 11:54 | 52.23612 | 15.94756 | 14524 ft | 411 kts | 81° |
| 2026-05-09 11:55 | 52.24049 | 15.99329 | 13984 ft | 406 kts | 76° |
| 2026-05-09 11:56 | 52.32045 | 16.16737 | 11171 ft | 381 kts | 44° |
| 2026-05-09 11:56 | 52.33484 | 16.20342 | 10616 ft | 381 kts | 69° |
| 2026-05-09 11:56 | 52.33779 | 16.24545 | 10417 ft | 367 kts | 97° |
| 2026-05-09 11:57 | 52.32974 | 16.28371 | 10310 ft | 349 kts | 116° |
| 2026-05-09 11:57 | 52.31953 | 16.31852 | 10201 ft | 332 kts | 111° |
| 2026-05-09 11:57 | 52.31160 | 16.35298 | 10084 ft | 316 kts | 108° |
| 2026-05-09 11:57 | 52.30641 | 16.38682 | 9945 ft | 300 kts | 89° |
| 2026-05-09 11:58 | 52.31031 | 16.41868 | 9828 ft | 276 kts | 62° |
| 2026-05-09 11:58 | 52.32072 | 16.44308 | 9700 ft | 249 kts | 45° |
| 2026-05-09 11:58 | 52.33320 | 16.46049 | 9545 ft | 225 kts | 31° |
| 2026-05-09 11:58 | 52.34692 | 16.47109 | 9089 ft | 216 kts | 19° |
| 2026-05-09 11:59 | 52.36111 | 16.47858 | 8519 ft | 213 kts | 17° |
| 2026-05-09 11:59 | 52.37562 | 16.48214 | 7814 ft | 214 kts | 353° |
| 2026-05-09 11:59 | 52.38889 | 16.47190 | 7133 ft | 219 kts | 318° |
| 2026-05-09 11:59 | 52.39735 | 16.45087 | 6481 ft | 222 kts | 293° |
| 2026-05-09 12:00 | 52.40225 | 16.42695 | 5834 ft | 221 kts | 288° |
| 2026-05-09 12:00 | 52.40665 | 16.40297 | 5188 ft | 219 kts | 287° |
| 2026-05-09 12:00 | 52.41349 | 16.38158 | 4705 ft | 205 kts | 323° |
| 2026-05-09 12:00 | 52.42555 | 16.37367 | 4535 ft | 176 kts | 359° |
| 2026-05-09 12:01 | 52.43710 | 16.37393 | 4201 ft | 163 kts | 14° |
| 2026-05-09 12:01 | 52.44700 | 16.37933 | 4254 ft | 149 kts | 22° |
| 2026-05-09 12:01 | 52.45695 | 16.38441 | 4254 ft | 148 kts | 20° |
| 2026-05-09 12:01 | 52.46691 | 16.38935 | 4225 ft | 149 kts | 20° |
| 2026-05-09 12:02 | 52.47667 | 16.39484 | 4202 ft | 148 kts | 32° |
| 2026-05-09 12:02 | 52.48162 | 16.40795 | 4206 ft | 139 kts | 94° |
| 2026-05-09 12:02 | 52.47900 | 16.42370 | 4213 ft | 147 kts | 100° |
| 2026-05-09 12:02 | 52.47776 | 16.44004 | 4269 ft | 142 kts | 95° |
| 2026-05-09 12:03 | 52.47699 | 16.45596 | 4702 ft | 136 kts | 94° |
| 2026-05-09 12:03 | 52.47463 | 16.47209 | 4607 ft | 159 kts | 108° |
| 2026-05-09 12:03 | 52.47237 | 16.48913 | 4405 ft | 145 kts | 97° |
| 2026-05-09 12:03 | 52.47108 | 16.50548 | 4115 ft | 147 kts | 95° |
| 2026-05-09 12:04 | 52.46885 | 16.52141 | 3937 ft | 136 kts | 109° |
| 2026-05-09 12:04 | 52.46603 | 16.53614 | 3998 ft | 139 kts | 103° |
| 2026-05-09 12:04 | 52.46394 | 16.55208 | 4182 ft | 144 kts | 100° |
| 2026-05-09 12:04 | 52.46232 | 16.56755 | 3859 ft | 136 kts | 97° |
| 2026-05-09 12:05 | 52.46118 | 16.58297 | 3564 ft | 138 kts | 94° |
| 2026-05-09 12:05 | 52.46026 | 16.59893 | 3297 ft | 143 kts | 94° |
| 2026-05-09 12:05 | 52.45928 | 16.61508 | 3074 ft | 142 kts | 95° |
| 2026-05-09 12:05 | 52.45801 | 16.63112 | 2800 ft | 143 kts | 98° |
| 2026-05-09 12:06 | 52.45589 | 16.64686 | 2535 ft | 140 kts | 103° |
| 2026-05-09 12:06 | 52.45289 | 16.66205 | 2379 ft | 141 kts | 108° |
| 2026-05-09 12:06 | 52.44981 | 16.67745 | 2071 ft | 145 kts | 105° |
| 2026-05-09 12:06 | 52.44687 | 16.69309 | 1756 ft | 142 kts | 108° |
| 2026-05-09 12:07 | 52.44374 | 16.70793 | 1558 ft | 136 kts | 107° |
| 2026-05-09 12:07 | 52.44088 | 16.72282 | 1393 ft | 138 kts | 107° |
| 2026-05-09 12:07 | 52.43797 | 16.73780 | 1294 ft | 139 kts | 106° |
| 2026-05-09 12:07 | 52.43509 | 16.75297 | 1110 ft | 139 kts | 107° |
| 2026-05-09 12:08 | 52.43201 | 16.76810 | 948 ft | 141 kts | 106° |
| 2026-05-09 12:08 | 52.42936 | 16.78342 | 666 ft | 135 kts | 107° |
| 2026-05-09 12:08 | 52.42676 | 16.79772 | 427 ft | 128 kts | 108° |
| 2026-05-09 12:08 | 52.42406 | 16.81079 | 313 ft | 110 kts | 107° |
| 2026-05-09 12:09 | 52.42236 | 16.81967 | 307 ft | 60 kts | 107° |
| 2026-05-09 12:09 | 52.42128 | 16.82508 | 306 ft | 46 kts | 108° |
| 2026-05-09 12:09 | 52.42064 | 16.82843 | 307 ft | 22 kts | 108° |
| 2026-05-09 12:10 | 52.41924 | 16.82955 | 305 ft | 1 kts | 197° |
| 2026-05-09 12:10 | 52.41919 | 16.82953 | 305 ft | 0 kts | 196° |
| 2026-05-09 12:13 | 52.41882 | 16.82936 | 304 ft | 13 kts | 196° |
| 2026-05-09 12:14 | 52.41783 | 16.82882 | 302 ft | 15 kts | 197° |
| 2026-05-09 12:14 | 52.41684 | 16.82858 | 299 ft | 15 kts | 155° |
| 2026-05-09 12:14 | 52.41643 | 16.82986 | 299 ft | 6 kts | 133° |
| 2026-05-09 12:14 | 52.41600 | 16.82993 | 300 ft | 7 kts | 192° |
| 2026-05-09 12:15 | 52.41582 | 16.82987 | 300 ft | 0 kts | 192° |